Angleton, Texas
Current Conditions -  °F | °C
As of 11:53 PM on Wednesday 17 Dec 2014 (Local Time) from KLBX Reporting Station
Scattered Clouds Scattered Clouds  
Wind Chill: 64°   Ceiling: Unl
Heat Index: 64°   Visibility: 10mi
Dew Point: 63°   Wind: 0mph
Humidity: 96%   Direction: NA
Pressure: 30.1"   Gusts: NA
Location:  29.16°N, 95.43°W
Report Text: KLBX 180553Z AUTO 00000KT 10SM FEW022 SCT060 SCT095 18/17 A3010 RMK AO2 RAB35E44 SLP191 P0000 60000 T01780172 10189 20178 402000067 53003
Loading
Personal Weather Stations






























Interactive Weather Map New forecast layout! Learn more

10-Day Weather Forecast

Advertisements
Track Severe Weather on mobile